createdAt,value
2019-04-06T00:01:05.005Z,25.70
2019-04-06T00:03:36.833Z,25.60
2019-04-06T00:06:10.703Z,25.67
2019-04-06T00:08:42.497Z,26.10
2019-04-06T00:11:14.394Z,27.43
2019-04-06T00:13:46.418Z,25.37
2019-04-06T00:16:18.180Z,25.27
2019-04-06T00:18:49.963Z,25.07
2019-04-06T00:21:21.927Z,25.53
2019-04-06T00:23:53.628Z,25.87
2019-04-06T00:26:25.762Z,25.37
2019-04-06T00:28:57.740Z,25.07
2019-04-06T00:31:51.332Z,25.83
2019-04-06T00:34:23.452Z,24.00
2019-04-06T00:36:55.086Z,24.83
2019-04-06T00:39:26.670Z,24.97
2019-04-06T00:41:58.242Z,24.57
2019-04-06T00:44:30.002Z,25.20
2019-04-06T00:47:01.756Z,25.00
2019-04-06T00:49:33.826Z,25.67
2019-04-06T00:52:05.927Z,24.75
2019-04-06T00:54:37.579Z,23.83
2019-04-06T00:57:09.136Z,24.63
2019-04-06T00:59:40.979Z,23.70
2019-04-06T01:02:12.573Z,22.70
2019-04-06T01:04:44.172Z,25.20
2019-04-06T01:07:16.629Z,22.27
2019-04-06T01:09:48.580Z,24.63
2019-04-06T01:12:20.986Z,23.93
2019-04-06T01:14:52.703Z,23.77
2019-04-06T01:17:24.790Z,23.43
2019-04-06T01:19:57.651Z,23.40
2019-04-06T01:22:29.345Z,23.60
2019-04-06T01:25:01.281Z,22.13
2019-04-06T01:27:33.111Z,23.87
2019-04-06T01:30:05.487Z,22.90
2019-04-06T01:32:37.150Z,22.93
2019-04-06T01:35:08.906Z,23.17
2019-04-06T01:37:40.406Z,22.80
2019-04-06T01:40:12.253Z,21.87
2019-04-06T01:42:44.023Z,24.40
2019-04-06T01:45:16.573Z,22.30
2019-04-06T01:47:49.762Z,21.67
2019-04-06T01:50:21.917Z,22.67
2019-04-06T01:52:53.870Z,22.00
2019-04-06T01:55:25.752Z,22.17
2019-04-06T01:57:57.485Z,22.73
2019-04-06T02:00:28.967Z,21.17
2019-04-06T02:03:00.853Z,21.90
2019-04-06T02:05:32.365Z,20.87
2019-04-06T02:08:04.051Z,21.47
2019-04-06T02:10:37.009Z,20.70
2019-04-06T02:13:08.642Z,20.87
2019-04-06T02:15:41.472Z,20.50
2019-04-06T02:18:13.313Z,19.82
2019-04-06T02:20:45.242Z,19.80
2019-04-06T02:23:17.061Z,19.60
2019-04-06T02:25:48.605Z,19.63
2019-04-06T02:28:20.204Z,19.20
2019-04-06T02:31:06.357Z,19.10
2019-04-06T02:34:09.569Z,19.23
2019-04-06T02:37:01.476Z,18.17
2019-04-06T02:39:38.743Z,17.70
2019-04-06T02:42:17.663Z,17.07
2019-04-06T02:44:49.612Z,17.60
2019-04-06T02:47:21.143Z,17.20
2019-04-06T02:49:52.674Z,17.70
2019-04-06T02:52:24.580Z,17.40
2019-04-06T02:54:56.167Z,16.60
2019-04-06T02:57:27.990Z,15.80
2019-04-06T02:59:59.980Z,16.30
2019-04-06T03:02:31.618Z,15.83
2019-04-06T03:05:03.480Z,15.60
2019-04-06T03:07:35.403Z,15.90
2019-04-06T03:10:07.633Z,16.17
2019-04-06T03:12:39.181Z,16.10
2019-04-06T03:15:11.015Z,16.43
2019-04-06T03:17:42.996Z,14.93
2019-04-06T03:20:14.638Z,15.38
2019-04-06T03:22:46.608Z,16.37
2019-04-06T03:25:19.183Z,15.33
2019-04-06T03:27:50.769Z,15.23
2019-04-06T03:30:22.520Z,15.30
2019-04-06T03:32:54.512Z,15.87
2019-04-06T03:35:26.456Z,15.83
2019-04-06T03:37:59.320Z,16.73
2019-04-06T03:40:31.262Z,15.37
2019-04-06T03:43:03.305Z,16.27
2019-04-06T03:45:35.260Z,15.73
2019-04-06T03:48:06.921Z,15.90
2019-04-06T03:50:38.777Z,16.20
2019-04-06T03:53:10.436Z,15.63
2019-04-06T03:55:42.809Z,16.03
2019-04-06T03:58:14.490Z,16.07
2019-04-06T04:00:46.227Z,15.67
2019-04-06T04:03:18.001Z,16.37
2019-04-06T04:05:49.552Z,15.30
2019-04-06T04:08:21.874Z,15.25
2019-04-06T04:10:53.919Z,15.60
2019-04-06T04:13:25.638Z,16.27
2019-04-06T04:15:58.182Z,15.50
2019-04-06T04:18:29.865Z,16.57
2019-04-06T04:21:02.015Z,15.87
2019-04-06T04:23:34.263Z,15.77
2019-04-06T04:26:05.928Z,15.47
2019-04-06T04:28:39.317Z,15.27
2019-04-06T04:31:10.973Z,15.93
2019-04-06T04:33:42.730Z,15.83
2019-04-06T04:36:17.329Z,15.80
2019-04-06T04:38:48.988Z,15.93
2019-04-06T04:41:20.516Z,15.72
2019-04-06T04:43:52.734Z,15.37
2019-04-06T04:46:24.907Z,14.90
2019-04-06T04:48:56.679Z,15.70
2019-04-06T04:51:28.386Z,15.80
2019-04-06T04:54:01.133Z,15.30
2019-04-06T04:56:33.445Z,16.07
2019-04-06T04:59:05.996Z,14.67
2019-04-06T05:01:37.686Z,14.83
2019-04-06T05:04:09.442Z,15.20
2019-04-06T05:06:41.134Z,15.33
2019-04-06T05:09:12.772Z,15.20
2019-04-06T05:11:44.438Z,15.47
2019-04-06T05:14:51.514Z,15.53
2019-04-06T05:17:24.408Z,14.68
2019-04-06T05:19:57.622Z,14.33
2019-04-06T05:22:30.495Z,15.27
2019-04-06T05:25:02.440Z,14.80
2019-04-06T05:27:34.260Z,13.43
2019-04-06T05:30:08.299Z,15.27
2019-04-06T05:32:39.882Z,15.43
2019-04-06T05:35:13.318Z,14.83
2019-04-06T05:37:44.954Z,15.23
2019-04-06T05:40:16.951Z,15.78
2019-04-06T05:42:48.959Z,14.70
2019-04-06T05:45:21.239Z,14.47
2019-04-06T05:47:53.930Z,15.30
2019-04-06T05:50:25.533Z,14.90
2019-04-06T05:52:58.086Z,15.03
2019-04-06T05:55:29.616Z,14.57
2019-04-06T05:58:04.421Z,14.57
2019-04-06T06:00:35.229Z,14.80
2019-04-06T06:03:08.610Z,14.45
2019-04-06T06:05:41.162Z,15.03
2019-04-06T06:08:12.834Z,15.83
2019-04-06T06:10:44.658Z,14.50
2019-04-06T06:13:16.528Z,15.00
2019-04-06T06:15:49.006Z,14.10
2019-04-06T06:18:26.324Z,15.00
2019-04-06T06:20:54.018Z,15.93
2019-04-06T06:23:26.569Z,17.92
2019-04-06T06:25:58.349Z,17.47
2019-04-06T06:28:29.947Z,15.83
2019-04-06T06:31:03.960Z,16.63
2019-04-06T06:33:35.662Z,16.47
2019-04-06T06:36:07.541Z,16.07
2019-04-06T06:38:39.969Z,16.07
2019-04-06T06:41:11.579Z,14.93
2019-04-06T06:43:45.259Z,15.67
2019-04-06T06:46:17.095Z,15.33
2019-04-06T06:48:49.017Z,15.78
2019-04-06T06:51:20.896Z,15.30
2019-04-06T06:53:52.752Z,15.17
2019-04-06T06:56:24.805Z,14.97
2019-04-06T06:58:56.841Z,15.37
2019-04-06T07:01:28.543Z,15.73
2019-04-06T07:04:01.188Z,15.67
2019-04-06T07:06:33.043Z,16.07
2019-04-06T07:09:06.124Z,16.13
2019-04-06T07:11:37.734Z,15.75
2019-04-06T07:14:09.575Z,16.37
2019-04-06T07:16:42.212Z,15.70
2019-04-06T07:19:14.043Z,16.30
2019-04-06T07:21:46.661Z,17.10
2019-04-06T07:24:18.328Z,15.50
2019-04-06T07:26:49.938Z,15.83
2019-04-06T07:29:22.648Z,16.33
2019-04-06T07:31:54.866Z,16.00
2019-04-06T07:34:26.483Z,16.73
2019-04-06T07:36:58.202Z,16.93
2019-04-06T07:39:30.143Z,15.50
2019-04-06T07:42:02.322Z,16.77
2019-04-06T07:44:34.904Z,15.30
2019-04-06T07:47:06.616Z,16.17
2019-04-06T07:49:38.481Z,16.30
2019-04-06T07:52:10.302Z,17.30
2019-04-06T07:54:41.960Z,17.40
2019-04-06T07:57:14.876Z,16.48
2019-04-06T07:59:46.899Z,17.02
2019-04-06T08:02:18.560Z,16.87
2019-04-06T08:04:50.300Z,15.70
2019-04-06T08:07:23.763Z,16.80
2019-04-06T08:09:55.512Z,16.90
2019-04-06T08:12:27.370Z,16.63
2019-04-06T08:14:58.988Z,16.90
2019-04-06T08:17:30.697Z,16.60
2019-04-06T08:20:04.501Z,18.07
2019-04-06T08:22:36.342Z,17.37
2019-04-06T08:25:08.294Z,17.50
2019-04-06T08:27:39.964Z,17.20
2019-04-06T08:30:13.283Z,18.17
2019-04-06T08:32:45.405Z,17.60
2019-04-06T08:35:25.442Z,17.60
2019-04-06T08:37:51.756Z,18.73
2019-04-06T08:40:23.632Z,18.05
2019-04-06T08:42:55.641Z,18.50
2019-04-06T08:45:27.324Z,17.67
2019-04-06T08:48:00.206Z,18.67
2019-04-06T08:50:32.410Z,17.63
2019-04-06T08:53:03.976Z,19.23
2019-04-06T08:55:35.814Z,17.77
2019-04-06T08:58:07.440Z,17.27
2019-04-06T09:00:39.227Z,18.60
2019-04-06T09:03:10.956Z,17.50
2019-04-06T09:05:43.407Z,17.90
2019-04-06T09:08:15.079Z,18.63
2019-04-06T09:10:48.130Z,17.63
2019-04-06T09:13:20.051Z,17.57
2019-04-06T09:15:52.057Z,17.57
2019-04-06T09:18:24.481Z,18.97
2019-04-06T09:20:56.458Z,18.50
2019-04-06T09:23:28.075Z,18.73
2019-04-06T09:26:01.270Z,17.00
2019-04-06T09:28:33.262Z,18.13
2019-04-06T09:31:07.074Z,18.33
2019-04-06T09:33:38.692Z,18.37
2019-04-06T09:36:10.288Z,18.07
2019-04-06T09:38:42.323Z,18.13
2019-04-06T09:41:14.097Z,18.30
2019-04-06T09:43:45.753Z,17.60
2019-04-06T09:46:34.967Z,18.50
2019-04-06T09:49:40.811Z,18.20
2019-04-06T09:52:31.450Z,17.87
2019-04-06T09:55:22.125Z,18.23
2019-04-06T09:58:09.525Z,18.03
2019-04-06T10:00:47.873Z,18.07
2019-04-06T10:03:41.302Z,17.92
2019-04-06T10:06:21.659Z,18.07
2019-04-06T10:09:12.177Z,17.30
2019-04-06T10:12:04.546Z,18.17
2019-04-06T10:15:01.505Z,17.73
2019-04-06T10:17:56.236Z,17.60
2019-04-06T10:20:45.815Z,17.37
2019-04-06T10:23:34.975Z,17.57
2019-04-06T10:26:38.489Z,17.07
2019-04-06T10:29:47.974Z,17.23
2019-04-06T10:32:28.701Z,17.50
2019-04-06T10:35:16.588Z,16.70
2019-04-06T10:37:54.931Z,16.93
2019-04-06T10:40:33.465Z,18.37
2019-04-06T10:43:24.995Z,17.07
2019-04-06T10:46:21.532Z,17.30
2019-04-06T10:49:05.072Z,17.07
2019-04-06T10:51:56.313Z,16.90
2019-04-06T10:54:45.960Z,16.97
2019-04-06T10:57:29.899Z,18.57
2019-04-06T11:00:26.422Z,17.67
2019-04-06T11:03:15.799Z,17.37
2019-04-06T11:06:06.396Z,17.63
2019-04-06T11:09:00.124Z,16.43
2019-04-06T11:11:57.298Z,16.23
2019-04-06T11:14:54.301Z,17.53
2019-04-06T11:17:40.702Z,17.60
2019-04-06T11:20:46.691Z,16.40
2019-04-06T11:23:39.482Z,16.37
2019-04-06T11:26:20.287Z,16.50
2019-04-06T11:29:16.934Z,16.50
2019-04-06T11:32:07.277Z,17.53
2019-04-06T11:35:01.272Z,17.43
2019-04-06T11:37:50.080Z,17.60
2019-04-06T11:40:44.150Z,16.60
2019-04-06T11:43:44.718Z,17.07
2019-04-06T11:46:35.177Z,16.50
2019-04-06T11:49:30.354Z,16.07
2019-04-06T11:52:36.048Z,18.60
2019-04-06T11:55:32.823Z,18.17
2019-04-06T11:58:29.565Z,18.13
2019-04-06T12:01:08.164Z,17.67
2019-04-06T12:03:57.536Z,18.47
2019-04-06T12:06:47.003Z,17.97
2019-04-06T12:09:43.777Z,19.25
2019-04-06T12:12:33.244Z,17.77
2019-04-06T12:15:32.309Z,17.70
2019-04-06T12:18:26.409Z,18.75
2019-04-06T12:21:15.741Z,18.83
2019-04-06T12:24:03.311Z,20.00
2019-04-06T12:26:45.249Z,17.80
2019-04-06T12:29:29.638Z,19.20
2019-04-06T12:32:38.896Z,20.13
2019-04-06T12:35:34.383Z,19.73
2019-04-06T12:38:28.173Z,22.83
2019-04-06T12:41:14.287Z,24.07
2019-04-06T12:43:57.865Z,21.73
2019-04-06T12:46:47.452Z,20.73
2019-04-06T12:49:44.113Z,22.07
2019-04-06T12:52:28.586Z,21.75
2019-04-06T12:55:09.506Z,23.77
2019-04-06T12:58:09.958Z,22.13
2019-04-06T13:01:00.653Z,26.73
2019-04-06T13:04:06.979Z,28.00
2019-04-06T13:06:54.474Z,30.03
2019-04-06T13:09:47.952Z,31.97
2019-04-06T13:12:54.128Z,35.78
2019-04-06T13:15:50.689Z,39.77
2019-04-06T13:18:47.477Z,32.33
2019-04-06T13:21:32.064Z,32.87
2019-04-06T13:24:12.476Z,33.08
2019-04-06T13:27:00.587Z,33.87
2019-04-06T13:29:54.462Z,32.80
2019-04-06T13:32:47.945Z,35.00
2019-04-06T13:35:41.413Z,34.10
2019-04-06T13:38:38.019Z,35.13
2019-04-06T13:41:34.593Z,36.27
2019-04-06T13:44:31.075Z,35.23
2019-04-06T13:47:21.745Z,36.65
2019-04-06T13:50:10.264Z,36.30
2019-04-06T13:53:07.081Z,37.93
2019-04-06T13:56:15.912Z,38.70
2019-04-06T13:59:14.008Z,38.10
2019-04-06T14:02:01.782Z,36.60
2019-04-06T14:05:04.575Z,36.87
2019-04-06T14:07:54.705Z,41.20
2019-04-06T14:10:58.752Z,41.40
2019-04-06T14:13:43.049Z,40.87
2019-04-06T14:16:35.225Z,42.00
2019-04-06T14:19:24.959Z,39.37
2019-04-06T14:22:06.862Z,42.00
2019-04-06T14:24:51.477Z,50.30
2019-04-06T14:27:44.863Z,48.25
2019-04-06T14:30:24.639Z,48.75
2019-04-06T14:33:21.726Z,46.67
2019-04-06T14:36:10.449Z,47.43
2019-04-06T14:38:59.167Z,48.28
2019-04-06T14:41:44.974Z,48.10
2019-04-06T14:44:38.061Z,49.05
2019-04-06T14:47:33.302Z,51.13
2019-04-06T14:50:34.658Z,50.58
2019-04-06T14:53:27.364Z,51.60
2019-04-06T14:56:20.702Z,53.23
2019-04-06T14:59:12.825Z,51.80
2019-04-06T15:02:00.137Z,54.33
2019-04-06T15:04:41.638Z,55.93
2019-04-06T15:07:31.530Z,54.60
2019-04-06T15:10:34.877Z,55.20
2019-04-06T15:13:23.804Z,54.00
2019-04-06T15:16:13.709Z,55.47
2019-04-06T15:19:11.486Z,61.20
2019-04-06T15:22:02.067Z,61.30
2019-04-06T15:25:07.713Z,63.47
2019-04-06T15:27:57.416Z,63.80
2019-04-06T15:30:47.500Z,64.17
2019-04-06T15:33:46.037Z,62.88
2019-04-06T15:36:37.564Z,59.63
2019-04-06T15:39:15.975Z,60.13
2019-04-06T15:41:58.490Z,60.27
2019-04-06T15:44:41.340Z,58.10
2019-04-06T15:47:40.972Z,58.23
2019-04-06T15:50:37.442Z,58.00
2019-04-06T15:53:31.290Z,55.17
2019-04-06T15:56:16.979Z,58.23
2019-04-06T15:59:08.283Z,62.83
2019-04-06T16:02:03.194Z,61.87
2019-04-06T16:04:55.120Z,62.77
2019-04-06T16:07:52.625Z,55.50
2019-04-06T16:10:36.102Z,54.83
2019-04-06T16:13:26.877Z,54.67
2019-04-06T16:16:03.888Z,56.60
2019-04-06T16:18:50.808Z,53.97
2019-04-06T16:21:34.553Z,54.27
2019-04-06T16:24:17.112Z,50.80
2019-04-06T16:27:10.983Z,54.47
2019-04-06T16:29:51.412Z,50.67
2019-04-06T16:32:41.655Z,50.93
2019-04-06T16:35:25.681Z,46.57
2019-04-06T16:38:22.618Z,43.17
2019-04-06T16:41:16.775Z,42.98
2019-04-06T16:43:57.313Z,41.07
2019-04-06T16:46:50.931Z,39.27
2019-04-06T16:49:47.639Z,40.08
2019-04-06T16:52:44.696Z,39.85
2019-04-06T16:55:34.360Z,39.40
2019-04-06T16:58:24.164Z,41.10
2019-04-06T17:01:27.098Z,38.57
2019-04-06T17:04:17.405Z,41.23
2019-04-06T17:07:06.859Z,40.13
2019-04-06T17:09:55.251Z,43.33
2019-04-06T17:12:45.817Z,40.57
2019-04-06T17:15:35.132Z,38.08
2019-04-06T17:18:25.565Z,38.90
2019-04-06T17:21:19.288Z,38.77
2019-04-06T17:24:16.619Z,41.13
2019-04-06T17:27:21.138Z,43.00
2019-04-06T17:30:16.539Z,42.37
2019-04-06T17:32:59.494Z,47.53
2019-04-06T17:35:43.501Z,42.47
2019-04-06T17:38:30.254Z,43.43
2019-04-06T17:41:15.208Z,43.13
2019-04-06T17:43:55.854Z,43.42
2019-04-06T17:46:46.833Z,44.13
2019-04-06T17:49:27.084Z,44.58
2019-04-06T17:52:23.475Z,46.30
2019-04-06T17:55:18.208Z,50.43
2019-04-06T17:58:08.778Z,51.03
2019-04-06T18:01:01.048Z,50.43
2019-04-06T18:04:01.093Z,52.20
2019-04-06T18:06:42.515Z,53.25
2019-04-06T18:09:20.885Z,53.53
2019-04-06T18:12:29.986Z,55.17
2019-04-06T18:15:02.053Z,52.27
2019-04-06T18:17:35.304Z,52.17
2019-04-06T18:20:07.366Z,53.77
2019-04-06T18:22:39.131Z,52.07
2019-04-06T18:25:10.968Z,52.73
2019-04-06T18:27:42.936Z,54.63
2019-04-06T18:30:14.905Z,55.30
2019-04-06T18:32:59.953Z,53.63
2019-04-06T18:35:24.613Z,47.00
2019-04-06T18:38:19.035Z,37.63
2019-04-06T18:40:50.838Z,41.50
2019-04-06T18:43:23.438Z,43.33
2019-04-06T18:45:56.998Z,42.00
2019-04-06T18:48:29.983Z,45.93
2019-04-06T18:51:02.217Z,48.90
2019-04-06T18:53:34.334Z,49.70
2019-04-06T18:56:06.326Z,50.75
2019-04-06T18:58:40.569Z,54.20
2019-04-06T19:01:14.567Z,54.73
2019-04-06T19:03:46.133Z,53.50
2019-04-06T19:06:19.351Z,56.17
2019-04-06T19:08:51.262Z,52.20
2019-04-06T19:11:23.190Z,52.30
2019-04-06T19:13:55.511Z,51.47
2019-04-06T19:16:28.560Z,52.77
2019-04-06T19:19:00.185Z,55.47
2019-04-06T19:21:34.371Z,54.83
2019-04-06T19:24:06.159Z,54.33
2019-04-06T19:26:38.701Z,57.60
2019-04-06T19:29:11.699Z,57.95
2019-04-06T19:31:44.361Z,60.03
2019-04-06T19:34:15.960Z,57.33
2019-04-06T19:36:47.542Z,59.00
2019-04-06T19:39:19.806Z,60.10
2019-04-06T19:41:51.615Z,59.53
2019-04-06T19:44:23.331Z,46.88
2019-04-06T19:46:55.109Z,35.37
2019-04-06T19:49:27.428Z,32.53
2019-04-06T19:51:58.997Z,30.97
2019-04-06T19:54:31.260Z,29.53
2019-04-06T19:57:03.213Z,29.07
2019-04-06T19:59:36.174Z,27.87
2019-04-06T20:02:09.422Z,21.93
2019-04-06T20:04:41.325Z,20.60
2019-04-06T20:07:13.021Z,18.73
2019-04-06T20:09:45.156Z,16.67
2019-04-06T20:12:16.952Z,15.57
2019-04-06T20:14:49.110Z,11.77
2019-04-06T20:17:20.904Z,12.00
2019-04-06T20:19:54.503Z,11.27
2019-04-06T20:22:26.019Z,10.37
2019-04-06T20:24:57.751Z,10.37
2019-04-06T20:27:29.577Z,9.60
2019-04-06T20:30:01.527Z,9.40
2019-04-06T20:32:33.756Z,9.27
2019-04-06T20:35:07.015Z,8.30
2019-04-06T20:37:38.617Z,9.10
2019-04-06T20:40:10.593Z,8.73
2019-04-06T20:42:42.331Z,7.90
2019-04-06T20:45:13.975Z,8.70
2019-04-06T20:47:45.686Z,8.80
2019-04-06T20:50:17.894Z,8.15
2019-04-06T20:52:50.763Z,8.90
2019-04-06T20:55:22.671Z,9.10
2019-04-06T20:57:56.117Z,8.30
2019-04-06T21:00:28.518Z,8.57
2019-04-06T21:03:01.083Z,9.23
2019-04-06T21:05:34.592Z,9.83
2019-04-06T21:08:07.052Z,10.50
2019-04-06T21:10:38.867Z,10.33
2019-04-06T21:13:11.197Z,11.05
2019-04-06T21:15:43.637Z,11.68
2019-04-06T21:18:16.595Z,12.58
2019-04-06T21:20:48.723Z,13.73
2019-04-06T21:23:20.716Z,13.07
2019-04-06T21:25:52.865Z,14.93
2019-04-06T21:28:24.704Z,14.50
2019-04-06T21:30:57.069Z,15.27
2019-04-06T21:33:29.660Z,16.70
2019-04-06T21:36:01.660Z,16.37
2019-04-06T21:38:33.330Z,17.63
2019-04-06T21:41:06.255Z,18.48
2019-04-06T21:43:38.021Z,18.17
2019-04-06T21:46:10.595Z,18.83
2019-04-06T21:48:43.813Z,18.50
2019-04-06T21:51:15.825Z,19.03
2019-04-06T21:53:48.234Z,18.73
2019-04-06T21:56:20.117Z,19.05
2019-04-06T21:58:53.127Z,18.03
2019-04-06T22:01:25.425Z,19.97
2019-04-06T22:03:58.616Z,19.57
2019-04-06T22:06:30.516Z,18.80
2019-04-06T22:09:02.761Z,20.40
2019-04-06T22:11:37.099Z,19.50
2019-04-06T22:14:09.299Z,20.20
2019-04-06T22:16:41.799Z,21.00
2019-04-06T22:19:13.333Z,21.35
2019-04-06T22:21:45.275Z,21.53
2019-04-06T22:24:18.643Z,22.45
2019-04-06T22:26:50.699Z,21.83
2019-04-06T22:29:22.825Z,21.97
2019-04-06T22:31:56.144Z,22.43
2019-04-06T22:34:36.334Z,20.93
2019-04-06T22:37:01.385Z,21.10
2019-04-06T22:39:34.012Z,19.20
2019-04-06T22:42:06.133Z,19.90
2019-04-06T22:44:38.215Z,20.60
2019-04-06T22:47:10.237Z,21.17
2019-04-06T22:49:43.267Z,22.43
2019-04-06T22:52:15.631Z,22.30
2019-04-06T22:54:47.735Z,23.47
2019-04-06T22:57:19.295Z,22.55
2019-04-06T22:59:50.887Z,23.50
2019-04-06T23:02:22.671Z,23.70
2019-04-06T23:05:16.203Z,22.67
2019-04-06T23:07:48.418Z,23.30
2019-04-06T23:10:20.264Z,22.43
2019-04-06T23:12:52.136Z,23.17
2019-04-06T23:15:24.524Z,21.17
2019-04-06T23:17:56.377Z,21.00
2019-04-06T23:20:29.906Z,20.73
2019-04-06T23:23:02.248Z,19.90
2019-04-06T23:25:34.079Z,19.47
2019-04-06T23:28:05.923Z,19.50
2019-04-06T23:30:38.487Z,18.73
2019-04-06T23:33:10.042Z,18.27
2019-04-06T23:35:42.280Z,19.12
2019-04-06T23:38:15.315Z,18.32
2019-04-06T23:40:47.164Z,18.57
2019-04-06T23:43:19.839Z,19.07
2019-04-06T23:45:51.592Z,19.00
2019-04-06T23:48:24.544Z,17.73
2019-04-06T23:50:57.345Z,17.57
2019-04-06T23:53:30.465Z,17.00
2019-04-06T23:56:02.690Z,18.13
2019-04-06T23:58:35.204Z,17.07
